createdAt,value
2024-01-11T00:01:49.091Z,4.00
2024-01-11T00:04:17.279Z,1.35
2024-01-11T00:06:46.245Z,9.05
2024-01-11T00:09:13.959Z,3.85
2024-01-11T00:11:41.790Z,2.58
2024-01-11T00:14:09.096Z,2.25
2024-01-11T00:16:36.797Z,2.28
2024-01-11T00:19:05.200Z,6.63
2024-01-11T00:21:32.488Z,4.00
2024-01-11T00:24:00.266Z,5.80
2024-01-11T00:26:27.496Z,2.65
2024-01-11T00:28:56.050Z,6.18
2024-01-11T00:31:24.256Z,2.70
2024-01-11T00:33:51.692Z,2.53
2024-01-11T00:36:21.670Z,2.85
2024-01-11T00:38:49.529Z,3.08
2024-01-11T00:41:17.021Z,5.65
2024-01-11T00:43:44.490Z,6.07
2024-01-11T00:46:12.051Z,8.75
2024-01-11T00:48:40.264Z,5.22
2024-01-11T00:51:09.098Z,2.40
2024-01-11T00:53:37.282Z,3.03
2024-01-11T00:56:05.227Z,2.53
2024-01-11T00:58:32.808Z,4.63
2024-01-11T01:01:00.402Z,3.08
2024-01-11T01:03:28.081Z,5.35
2024-01-11T01:05:57.371Z,6.10
2024-01-11T01:08:24.904Z,4.82
2024-01-11T01:10:53.222Z,3.25
2024-01-11T01:13:20.928Z,4.57
2024-01-11T01:15:48.572Z,5.10
2024-01-11T01:18:18.531Z,6.00
2024-01-11T01:20:46.092Z,3.38
2024-01-11T01:23:15.238Z,3.10
2024-01-11T01:25:42.695Z,5.18
2024-01-11T01:28:11.470Z,3.25
2024-01-11T01:30:38.826Z,3.83
2024-01-11T01:33:06.716Z,5.05
2024-01-11T01:35:36.468Z,2.58
2024-01-11T01:38:04.735Z,2.88
2024-01-11T01:40:34.266Z,4.68
2024-01-11T01:43:01.710Z,4.50
2024-01-11T01:45:29.441Z,4.32
2024-01-11T01:47:57.880Z,3.88
2024-01-11T01:50:27.395Z,4.28
2024-01-11T01:52:57.117Z,3.05
2024-01-11T01:55:26.470Z,2.40
2024-01-11T01:57:55.408Z,6.03
2024-01-11T02:00:22.996Z,3.80
2024-01-11T02:02:54.179Z,2.75
2024-01-11T02:05:22.480Z,1.50
2024-01-11T02:07:50.283Z,5.03
2024-01-11T02:10:19.953Z,4.57
2024-01-11T02:12:48.044Z,5.10
2024-01-11T02:15:16.620Z,3.65
2024-01-11T02:17:44.601Z,3.03
2024-01-11T02:20:12.504Z,4.50
2024-01-11T02:22:51.652Z,1.92
2024-01-11T02:25:19.400Z,1.67
2024-01-11T02:27:51.808Z,2.58
2024-01-11T02:30:19.746Z,5.18
2024-01-11T02:32:49.927Z,5.70
2024-01-11T02:35:19.220Z,2.65
2024-01-11T02:37:47.737Z,5.63
2024-01-11T02:40:16.649Z,3.05
2024-01-11T02:42:44.295Z,1.48
2024-01-11T02:45:13.862Z,3.85
2024-01-11T02:47:44.760Z,0.98
2024-01-11T02:50:15.400Z,3.47
2024-01-11T02:52:42.752Z,6.20
2024-01-11T02:55:10.631Z,2.63
2024-01-11T02:57:37.900Z,0.88
2024-01-11T03:00:06.854Z,4.15
2024-01-11T03:02:34.700Z,4.07
2024-01-11T03:05:02.964Z,2.50
2024-01-11T03:07:31.374Z,2.25
2024-01-11T03:09:59.172Z,5.13
2024-01-11T03:12:27.750Z,2.13
2024-01-11T03:14:55.749Z,6.60
2024-01-11T03:17:23.702Z,4.88
2024-01-11T03:19:51.003Z,3.92
2024-01-11T03:22:18.545Z,1.92
2024-01-11T03:24:45.819Z,5.05
2024-01-11T03:27:13.647Z,5.57
2024-01-11T03:29:41.981Z,4.65
2024-01-11T03:32:09.443Z,6.03
2024-01-11T03:34:37.085Z,6.25
2024-01-11T03:37:04.928Z,2.85
2024-01-11T03:39:35.618Z,5.35
2024-01-11T03:42:05.080Z,3.95
2024-01-11T03:44:32.665Z,4.68
2024-01-11T03:47:00.294Z,2.17
2024-01-11T03:49:28.060Z,2.78
2024-01-11T03:51:56.659Z,2.40
2024-01-11T03:54:24.146Z,2.67
2024-01-11T03:56:51.320Z,1.02
2024-01-11T03:59:18.523Z,2.40
2024-01-11T04:01:47.692Z,2.80
2024-01-11T04:04:16.057Z,2.75
2024-01-11T04:09:38.992Z,1.95
2024-01-11T04:12:08.269Z,2.08
2024-01-11T04:14:40.304Z,2.47
2024-01-11T04:17:08.804Z,1.65
2024-01-11T04:19:36.189Z,2.58
2024-01-11T04:22:03.783Z,6.53
2024-01-11T04:24:31.142Z,2.55
2024-01-11T04:26:58.934Z,1.85
2024-01-11T04:29:26.509Z,4.43
2024-01-11T04:31:55.816Z,3.05
2024-01-11T04:34:24.637Z,3.97
2024-01-11T04:36:54.288Z,2.38
2024-01-11T04:39:21.422Z,2.85
2024-01-11T04:41:49.140Z,3.00
2024-01-11T04:44:18.198Z,3.22
2024-01-11T04:46:45.821Z,2.65
2024-01-11T04:52:06.371Z,3.40
2024-01-11T04:54:35.038Z,1.75
2024-01-11T04:57:06.692Z,3.30
2024-01-11T04:59:36.031Z,2.17
2024-01-11T05:02:07.359Z,5.22
2024-01-11T05:04:34.896Z,2.15
2024-01-11T05:07:04.204Z,5.63
2024-01-11T05:09:31.927Z,1.83
2024-01-11T05:11:59.995Z,2.08
2024-01-11T05:14:52.619Z,5.13
2024-01-11T05:17:21.085Z,1.58
2024-01-11T05:19:48.270Z,7.22
2024-01-11T05:22:16.970Z,4.25
2024-01-11T05:24:44.344Z,3.90
2024-01-11T05:27:15.689Z,2.70
2024-01-11T05:29:45.021Z,2.72
2024-01-11T05:32:38.480Z,1.63
2024-01-11T05:35:06.873Z,1.67
2024-01-11T05:37:34.505Z,3.35
2024-01-11T05:40:01.786Z,1.38
2024-01-11T05:42:30.103Z,2.13
2024-01-11T05:44:58.448Z,4.03
2024-01-11T05:47:26.165Z,2.53
2024-01-11T05:49:53.756Z,1.73
2024-01-11T05:52:21.063Z,4.30
2024-01-11T05:54:49.117Z,2.22
2024-01-11T05:57:16.462Z,3.33
2024-01-11T05:59:51.046Z,2.05
2024-01-11T06:02:21.868Z,4.63
2024-01-11T06:04:53.158Z,2.25
2024-01-11T06:07:20.715Z,4.38
2024-01-11T06:09:47.919Z,3.47
2024-01-11T06:12:17.271Z,2.03
2024-01-11T06:14:44.576Z,2.40
2024-01-11T06:17:14.139Z,0.65
2024-01-11T06:19:41.730Z,1.50
2024-01-11T06:22:08.953Z,3.50
2024-01-11T06:24:37.563Z,2.15
2024-01-11T06:27:06.378Z,3.15
2024-01-11T06:29:33.843Z,2.42
2024-01-11T06:32:01.370Z,3.13
2024-01-11T06:34:29.351Z,5.93
2024-01-11T06:36:58.232Z,2.45
2024-01-11T06:39:32.033Z,2.78
2024-01-11T06:42:00.400Z,1.65
2024-01-11T06:44:27.637Z,4.65
2024-01-11T06:46:56.406Z,3.78
2024-01-11T06:49:23.950Z,6.07
2024-01-11T06:51:51.590Z,3.08
2024-01-11T06:54:19.241Z,1.30
2024-01-11T06:56:48.305Z,2.50
2024-01-11T06:59:16.754Z,4.22
2024-01-11T07:01:48.271Z,3.92
2024-01-11T07:04:16.527Z,3.30
2024-01-11T07:06:44.327Z,3.28
2024-01-11T07:12:03.912Z,0.98
2024-01-11T07:17:22.431Z,3.90
2024-01-11T07:20:17.985Z,2.00
2024-01-11T07:22:50.526Z,3.15
2024-01-11T07:25:22.372Z,5.15
2024-01-11T07:28:15.431Z,3.03
2024-01-11T07:30:43.687Z,2.13
2024-01-11T07:33:13.652Z,2.80
2024-01-11T07:35:41.345Z,5.07
2024-01-11T07:38:09.754Z,3.20
2024-01-11T07:40:38.918Z,4.13
2024-01-11T07:43:07.559Z,3.00
2024-01-11T07:45:35.104Z,3.30
2024-01-11T07:48:04.987Z,4.18
2024-01-11T07:50:32.898Z,2.97
2024-01-11T07:53:00.339Z,0.93
2024-01-11T07:55:30.408Z,2.05
2024-01-11T07:58:00.143Z,3.15
2024-01-11T08:00:33.500Z,6.88
2024-01-11T08:03:01.857Z,4.03
2024-01-11T08:05:31.533Z,4.57
2024-01-11T08:08:03.370Z,4.15
2024-01-11T08:10:34.031Z,3.58
2024-01-11T08:13:02.216Z,2.60
2024-01-11T08:15:29.579Z,2.85
2024-01-11T08:17:58.727Z,3.92
2024-01-11T08:20:26.141Z,4.07
2024-01-11T08:22:53.738Z,3.70
2024-01-11T08:25:21.058Z,2.78
2024-01-11T08:27:48.405Z,3.03
2024-01-11T08:30:16.972Z,6.18
2024-01-11T08:32:44.382Z,2.20
2024-01-11T08:35:13.502Z,2.60
2024-01-11T08:37:41.465Z,2.28
2024-01-11T08:40:10.724Z,5.40
2024-01-11T08:42:41.708Z,2.28
2024-01-11T08:45:09.607Z,3.55
2024-01-11T08:47:40.794Z,3.33
2024-01-11T08:50:09.152Z,4.40
2024-01-11T08:52:36.504Z,2.20
2024-01-11T08:55:05.418Z,2.90
2024-01-11T08:57:32.864Z,2.20
2024-01-11T09:00:01.637Z,2.70
2024-01-11T09:02:29.697Z,1.92
2024-01-11T09:04:57.635Z,1.02
2024-01-11T09:07:25.379Z,1.10
2024-01-11T09:09:56.930Z,2.53
2024-01-11T09:12:25.374Z,3.97
2024-01-11T09:14:53.074Z,1.13
2024-01-11T09:17:20.966Z,2.58
2024-01-11T09:19:49.105Z,1.05
2024-01-11T09:22:17.197Z,3.95
2024-01-11T09:24:44.970Z,3.40
2024-01-11T09:27:12.653Z,4.22
2024-01-11T09:29:52.138Z,1.35
2024-01-11T09:32:21.961Z,7.95
2024-01-11T09:34:49.248Z,3.90
2024-01-11T09:37:17.276Z,2.45
2024-01-11T09:39:44.815Z,4.43
2024-01-11T09:42:12.543Z,4.28
2024-01-11T09:44:40.865Z,1.70
2024-01-11T09:47:16.009Z,4.65
2024-01-11T09:49:47.034Z,2.58
2024-01-11T09:52:20.827Z,5.47
2024-01-11T09:54:48.374Z,0.95
2024-01-11T09:57:23.108Z,2.92
2024-01-11T09:59:56.804Z,4.20
2024-01-11T10:02:28.026Z,3.60
2024-01-11T10:04:56.216Z,5.25
2024-01-11T10:07:26.272Z,4.55
2024-01-11T10:09:54.560Z,2.00
2024-01-11T10:12:26.724Z,1.83
2024-01-11T10:14:55.820Z,3.90
2024-01-11T10:17:25.658Z,5.43
2024-01-11T10:19:56.446Z,2.42
2024-01-11T10:22:26.360Z,1.58
2024-01-11T10:25:13.989Z,5.35
2024-01-11T10:27:46.799Z,4.55
2024-01-11T10:30:18.338Z,3.33
2024-01-11T10:32:48.797Z,4.18
2024-01-11T10:35:19.742Z,3.25
2024-01-11T10:37:52.058Z,2.13
2024-01-11T10:40:22.282Z,5.32
2024-01-11T10:42:53.834Z,3.85
2024-01-11T10:45:22.895Z,4.40
2024-01-11T10:48:02.748Z,1.98
2024-01-11T10:50:37.089Z,3.15
2024-01-11T10:53:19.416Z,9.27
2024-01-11T10:55:49.507Z,3.40
2024-01-11T10:58:19.081Z,7.68
2024-01-11T11:00:49.517Z,3.88
2024-01-11T11:03:19.690Z,5.10
2024-01-11T11:05:51.887Z,4.80
2024-01-11T11:08:20.235Z,3.30
2024-01-11T11:10:49.843Z,7.10
2024-01-11T11:13:20.956Z,6.82
2024-01-11T11:15:52.952Z,3.40
2024-01-11T11:18:22.344Z,7.32
2024-01-11T11:20:49.942Z,4.30
2024-01-11T11:23:20.362Z,7.00
2024-01-11T11:25:50.176Z,4.82
2024-01-11T11:28:19.631Z,6.20
2024-01-11T11:30:53.367Z,5.72
2024-01-11T11:33:25.935Z,3.95
2024-01-11T11:35:59.813Z,5.35
2024-01-11T11:38:32.953Z,8.18
2024-01-11T11:41:02.684Z,8.07
2024-01-11T11:43:32.605Z,4.10
2024-01-11T11:46:09.265Z,5.93
2024-01-11T11:48:52.563Z,7.60
2024-01-11T11:51:22.649Z,5.85
2024-01-11T11:53:53.307Z,5.55
2024-01-11T11:56:25.077Z,6.38
2024-01-11T11:58:54.600Z,6.72
2024-01-11T12:01:22.402Z,9.32
2024-01-11T12:03:53.292Z,5.90
2024-01-11T12:06:24.975Z,9.10
2024-01-11T12:08:57.676Z,6.70
2024-01-11T12:11:27.046Z,12.40
2024-01-11T12:13:58.402Z,6.23
2024-01-11T12:16:26.004Z,6.03
2024-01-11T12:18:53.906Z,9.32
2024-01-11T12:21:21.711Z,6.90
2024-01-11T12:23:50.125Z,6.63
2024-01-11T12:26:23.903Z,10.27
2024-01-11T12:28:52.740Z,6.27
2024-01-11T12:31:21.079Z,11.23
2024-01-11T12:33:50.328Z,7.57
2024-01-11T12:36:18.637Z,11.00
2024-01-11T12:38:52.602Z,9.27
2024-01-11T12:41:24.258Z,7.20
2024-01-11T12:43:52.034Z,9.70
2024-01-11T12:46:19.405Z,9.33
2024-01-11T12:48:49.660Z,6.07
2024-01-11T12:51:21.685Z,6.07
2024-01-11T12:53:50.958Z,7.90
2024-01-11T12:56:22.916Z,6.70
2024-01-11T12:58:50.890Z,5.80
2024-01-11T13:01:19.486Z,10.70
2024-01-11T13:03:48.131Z,5.33
2024-01-11T13:06:19.433Z,4.37
2024-01-11T13:08:47.140Z,7.50
2024-01-11T13:11:18.856Z,5.67
2024-01-11T13:13:49.003Z,7.30
2024-01-11T13:16:20.012Z,5.17
2024-01-11T13:18:48.608Z,5.27
2024-01-11T13:21:16.160Z,4.73
2024-01-11T13:23:44.432Z,6.53
2024-01-11T13:26:12.252Z,6.67
2024-01-11T13:28:39.895Z,10.80
2024-01-11T13:31:10.073Z,7.00
2024-01-11T13:33:38.839Z,7.37
2024-01-11T13:36:08.980Z,7.43
2024-01-11T13:38:37.067Z,4.13
2024-01-11T13:41:06.355Z,10.23
2024-01-11T13:43:33.914Z,7.30
2024-01-11T13:46:01.333Z,6.13
2024-01-11T13:48:28.783Z,7.63
2024-01-11T13:50:56.707Z,7.93
2024-01-11T13:53:24.154Z,4.50
2024-01-11T13:55:52.346Z,7.00
2024-01-11T13:58:20.134Z,5.00
2024-01-11T14:00:48.318Z,4.67
2024-01-11T14:03:15.715Z,6.60
2024-01-11T14:05:43.636Z,5.23
2024-01-11T14:08:11.025Z,9.40
2024-01-11T14:10:38.276Z,7.97
2024-01-11T14:13:05.935Z,7.70
2024-01-11T14:15:33.342Z,7.43
2024-01-11T14:18:00.947Z,11.37
2024-01-11T14:20:29.156Z,6.67
2024-01-11T14:22:56.955Z,7.33
2024-01-11T14:25:28.372Z,5.83
2024-01-11T14:27:55.615Z,6.17
2024-01-11T14:30:24.122Z,9.37
2024-01-11T14:32:51.863Z,8.57
2024-01-11T14:35:19.585Z,10.77
2024-01-11T14:37:47.078Z,4.97
2024-01-11T14:40:14.687Z,6.70
2024-01-11T14:42:42.477Z,8.20
2024-01-11T14:45:10.479Z,11.03
2024-01-11T14:47:38.487Z,6.67
2024-01-11T14:50:11.383Z,8.70
2024-01-11T14:52:43.975Z,8.60
2024-01-11T14:55:11.793Z,9.73
2024-01-11T14:57:41.594Z,6.43
2024-01-11T15:00:11.712Z,6.77
2024-01-11T15:02:39.832Z,7.20
2024-01-11T15:05:08.506Z,4.10
2024-01-11T15:07:36.304Z,5.83
2024-01-11T15:10:03.826Z,9.70
2024-01-11T15:12:31.232Z,6.90
2024-01-11T15:14:59.865Z,6.87
2024-01-11T15:17:27.458Z,6.27
2024-01-11T15:19:54.813Z,5.40
2024-01-11T15:22:23.086Z,6.67
2024-01-11T15:24:54.580Z,8.20
2024-01-11T15:27:22.777Z,5.93
2024-01-11T15:29:51.864Z,6.03
2024-01-11T15:32:20.405Z,6.20
2024-01-11T15:34:48.131Z,6.17
2024-01-11T15:37:15.868Z,7.07
2024-01-11T15:39:43.020Z,4.30
2024-01-11T15:42:13.013Z,4.53
2024-01-11T15:44:41.307Z,7.37
2024-01-11T15:47:12.081Z,4.80
2024-01-11T15:49:39.597Z,6.43
2024-01-11T15:52:07.373Z,4.63
2024-01-11T15:54:35.548Z,5.10
2024-01-11T15:57:05.158Z,4.00
2024-01-11T15:59:32.807Z,3.73
2024-01-11T16:02:06.504Z,2.10
2024-01-11T16:04:37.394Z,3.40
2024-01-11T16:07:05.447Z,5.83
2024-01-11T16:09:32.965Z,3.50
2024-01-11T16:12:04.048Z,5.80
2024-01-11T16:14:34.084Z,2.63
2024-01-11T16:17:01.763Z,1.73
2024-01-11T16:19:29.656Z,2.43
2024-01-11T16:21:57.268Z,1.80
2024-01-11T16:24:24.979Z,3.47
2024-01-11T16:26:52.332Z,6.70
2024-01-11T16:29:20.662Z,4.20
2024-01-11T16:31:48.257Z,3.90
2024-01-11T16:34:15.570Z,2.83
2024-01-11T16:36:43.190Z,4.37
2024-01-11T16:39:11.570Z,4.53
2024-01-11T16:41:41.830Z,4.10
2024-01-11T16:44:10.084Z,2.23
2024-01-11T16:46:37.519Z,3.00
2024-01-11T16:49:04.796Z,1.97
2024-01-11T16:51:32.965Z,5.10
2024-01-11T16:54:00.379Z,2.50
2024-01-11T16:56:28.358Z,3.80
2024-01-11T16:58:55.920Z,2.50
2024-01-11T17:01:23.451Z,3.50
2024-01-11T17:03:51.051Z,1.67
2024-01-11T17:06:20.793Z,2.57
2024-01-11T17:08:49.457Z,3.33
2024-01-11T17:11:17.332Z,3.43
2024-01-11T17:13:45.367Z,4.67
2024-01-11T17:16:21.411Z,4.70
2024-01-11T17:18:49.911Z,3.90
2024-01-11T17:21:17.375Z,5.10
2024-01-11T17:23:45.511Z,4.07
2024-01-11T17:26:13.362Z,3.73
2024-01-11T17:28:40.759Z,3.00
2024-01-11T17:31:08.283Z,2.83
2024-01-11T17:33:36.053Z,5.60
2024-01-11T17:36:04.326Z,3.40
2024-01-11T17:38:31.954Z,4.53
2024-01-11T17:40:59.307Z,2.57
2024-01-11T17:43:26.613Z,2.50
2024-01-11T17:45:54.020Z,4.03
2024-01-11T17:48:21.667Z,4.23
2024-01-11T17:50:49.202Z,5.03
2024-01-11T17:53:17.233Z,4.10
2024-01-11T17:55:45.730Z,2.83
2024-01-11T17:58:13.014Z,4.90
2024-01-11T18:00:41.674Z,4.37
2024-01-11T18:03:09.167Z,3.77
2024-01-11T18:05:36.850Z,5.43
2024-01-11T18:08:05.058Z,3.20
2024-01-11T18:10:38.821Z,3.20
2024-01-11T18:13:06.742Z,5.43
2024-01-11T18:15:34.303Z,1.77
2024-01-11T18:18:02.813Z,2.47
2024-01-11T18:20:30.810Z,1.23
2024-01-11T18:22:58.097Z,3.93
2024-01-11T18:25:25.509Z,2.53
2024-01-11T18:27:52.840Z,5.87
2024-01-11T18:30:20.598Z,3.23
2024-01-11T18:32:48.390Z,3.30
2024-01-11T18:35:15.841Z,4.97
2024-01-11T18:37:43.424Z,3.43
2024-01-11T18:40:11.936Z,4.17
2024-01-11T18:42:39.235Z,3.53
2024-01-11T18:45:07.569Z,2.73
2024-01-11T18:47:34.975Z,4.20
2024-01-11T18:50:03.104Z,4.30
2024-01-11T18:52:32.151Z,2.10
2024-01-11T18:55:08.287Z,4.10
2024-01-11T18:57:44.225Z,2.00
2024-01-11T19:00:12.424Z,2.03
2024-01-11T19:02:40.174Z,1.10
2024-01-11T19:05:08.716Z,1.53
2024-01-11T19:07:36.094Z,2.10
2024-01-11T19:10:04.923Z,1.00
2024-01-11T19:12:32.443Z,2.60
2024-01-11T19:15:00.268Z,1.50
2024-01-11T19:17:27.824Z,0.70
2024-01-11T19:19:56.320Z,2.83
2024-01-11T19:22:24.269Z,1.47
2024-01-11T19:24:51.899Z,1.00
2024-01-11T19:27:19.279Z,2.37
2024-01-11T19:29:46.560Z,2.67
2024-01-11T19:32:14.414Z,0.83
2024-01-11T19:34:41.695Z,2.23
2024-01-11T19:37:10.494Z,1.20
2024-01-11T19:39:40.038Z,1.20
2024-01-11T19:42:08.251Z,0.93
2024-01-11T19:44:36.456Z,1.60
2024-01-11T19:47:03.908Z,2.10
2024-01-11T19:49:31.333Z,1.80
2024-01-11T19:51:58.608Z,1.60
2024-01-11T19:54:26.558Z,2.00
2024-01-11T19:56:54.151Z,0.80
2024-01-11T19:59:21.717Z,0.80
2024-01-11T20:01:51.370Z,1.30
2024-01-11T20:04:21.386Z,1.23
2024-01-11T20:06:48.769Z,1.77
2024-01-11T20:09:18.228Z,1.77
2024-01-11T20:11:46.069Z,2.00
2024-01-11T20:14:13.789Z,1.43
2024-01-11T20:16:41.392Z,2.20
2024-01-11T20:19:09.991Z,0.50
2024-01-11T20:21:37.624Z,0.73
2024-01-11T20:24:05.897Z,1.13
2024-01-11T20:26:33.289Z,1.63
2024-01-11T20:29:00.592Z,3.50
2024-01-11T20:31:28.084Z,1.30
2024-01-11T20:33:57.706Z,1.50
2024-01-11T20:36:25.244Z,1.30
2024-01-11T20:38:52.708Z,0.80
2024-01-11T20:41:20.413Z,0.90
2024-01-11T20:43:49.747Z,0.80
2024-01-11T20:46:27.258Z,1.10
2024-01-11T20:48:55.069Z,2.03
2024-01-11T20:51:22.329Z,2.23
2024-01-11T20:53:51.557Z,0.60
2024-01-11T20:56:19.044Z,0.83
2024-01-11T20:58:46.797Z,1.27
2024-01-11T21:01:14.539Z,1.33
2024-01-11T21:03:42.562Z,2.50
2024-01-11T21:06:14.367Z,2.60
2024-01-11T21:08:42.225Z,1.30
2024-01-11T21:11:09.850Z,0.70
2024-01-11T21:13:37.771Z,0.80
2024-01-11T21:16:05.659Z,3.60
2024-01-11T21:18:35.024Z,2.20
2024-01-11T21:21:03.930Z,1.33
2024-01-11T21:23:31.500Z,1.13
2024-01-11T21:25:59.107Z,2.37
2024-01-11T21:28:26.895Z,1.53
2024-01-11T21:30:54.224Z,1.60
2024-01-11T21:33:21.702Z,2.40
2024-01-11T21:35:49.470Z,1.47
2024-01-11T21:38:17.495Z,2.30
2024-01-11T21:40:45.088Z,1.60
2024-01-11T21:43:12.863Z,1.70
2024-01-11T21:45:40.125Z,1.97
2024-01-11T21:48:07.856Z,1.17
2024-01-11T21:50:35.862Z,1.53
2024-01-11T21:53:03.195Z,1.00
2024-01-11T21:55:32.070Z,0.60
2024-01-11T21:57:59.573Z,1.50
2024-01-11T22:00:26.964Z,1.47
2024-01-11T22:02:54.306Z,2.13
2024-01-11T22:05:21.582Z,1.27
2024-01-11T22:07:50.360Z,0.47
2024-01-11T22:10:17.689Z,1.90
2024-01-11T22:12:46.266Z,0.80
2024-01-11T22:15:13.826Z,0.50
2024-01-11T22:17:41.450Z,1.83
2024-01-11T22:20:09.812Z,1.63
2024-01-11T22:22:37.372Z,0.80
2024-01-11T22:25:05.228Z,1.00
2024-01-11T22:27:33.041Z,1.63
2024-01-11T22:30:01.309Z,1.10
2024-01-11T22:32:28.891Z,1.37
2024-01-11T22:34:56.275Z,0.80
2024-01-11T22:37:24.307Z,0.50
2024-01-11T22:39:51.547Z,1.13
2024-01-11T22:42:18.825Z,0.53
2024-01-11T22:44:46.146Z,0.70
2024-01-11T22:47:13.812Z,0.70
2024-01-11T22:49:41.413Z,0.40
2024-01-11T22:52:08.703Z,1.47
2024-01-11T22:54:36.726Z,0.93
2024-01-11T22:57:04.706Z,1.00
2024-01-11T22:59:35.584Z,1.07
2024-01-11T23:02:04.137Z,1.13
2024-01-11T23:04:33.430Z,1.30
2024-01-11T23:07:01.761Z,2.03
2024-01-11T23:09:30.129Z,1.13
2024-01-11T23:11:57.525Z,0.77
2024-01-11T23:14:24.825Z,1.47
2024-01-11T23:16:52.774Z,1.33
2024-01-11T23:19:20.392Z,0.97
2024-01-11T23:21:47.829Z,2.07
2024-01-11T23:24:15.693Z,1.33
2024-01-11T23:26:43.666Z,1.00
2024-01-11T23:29:11.408Z,0.80
2024-01-11T23:31:38.910Z,0.90
2024-01-11T23:34:06.140Z,1.07
2024-01-11T23:36:33.938Z,0.80
2024-01-11T23:39:01.561Z,1.30
2024-01-11T23:41:29.397Z,1.10
2024-01-11T23:43:56.800Z,1.70
2024-01-11T23:46:24.149Z,1.50
2024-01-11T23:48:51.595Z,0.67
2024-01-11T23:51:19.102Z,1.73
2024-01-11T23:53:46.507Z,1.67
2024-01-11T23:56:13.901Z,1.90
2024-01-11T23:58:41.812Z,2.70
